createdAt,value
2023-04-18T00:01:20.512Z,45.97
2023-04-18T00:03:47.282Z,45.93
2023-04-18T00:06:13.957Z,46.09
2023-04-18T00:08:41.852Z,45.85
2023-04-18T00:11:08.502Z,45.90
2023-04-18T00:13:34.951Z,45.77
2023-04-18T00:16:01.412Z,45.98
2023-04-18T00:18:27.957Z,45.86
2023-04-18T00:20:54.616Z,45.86
2023-04-18T00:23:21.126Z,45.96
2023-04-18T00:25:48.940Z,45.70
2023-04-18T00:28:15.560Z,45.93
2023-04-18T00:30:42.052Z,46.12
2023-04-18T00:33:08.544Z,45.92
2023-04-18T00:35:35.026Z,45.95
2023-04-18T00:38:01.449Z,46.00
2023-04-18T00:40:27.959Z,46.09
2023-04-18T00:42:55.860Z,45.94
2023-04-18T00:45:22.347Z,46.03
2023-04-18T00:47:48.896Z,45.85
2023-04-18T00:50:15.898Z,45.90
2023-04-18T00:52:44.334Z,45.91
2023-04-18T00:55:10.911Z,45.96
2023-04-18T00:57:37.409Z,45.92
2023-04-18T01:00:07.207Z,45.94
2023-04-18T01:02:33.921Z,45.98
2023-04-18T01:05:00.478Z,45.93
2023-04-18T01:07:27.209Z,45.93
2023-04-18T01:09:54.121Z,46.14
2023-04-18T01:12:20.570Z,45.89
2023-04-18T01:14:47.127Z,45.89
2023-04-18T01:17:14.948Z,45.93
2023-04-18T01:19:41.578Z,46.03
2023-04-18T01:22:08.740Z,46.00
2023-04-18T01:24:36.570Z,46.01
2023-04-18T01:27:03.162Z,45.91
2023-04-18T01:29:29.684Z,45.80
2023-04-18T01:31:56.212Z,46.05
2023-04-18T01:34:22.655Z,46.10
2023-04-18T01:36:49.170Z,46.13
2023-04-18T01:39:15.717Z,45.94
2023-04-18T01:41:43.608Z,45.96
2023-04-18T01:44:10.156Z,46.15
2023-04-18T01:46:36.730Z,46.23
2023-04-18T01:49:03.427Z,46.10
2023-04-18T01:51:29.906Z,46.15
2023-04-18T01:53:56.625Z,46.00
2023-04-18T01:56:23.087Z,46.15
2023-04-18T01:58:50.867Z,46.29
2023-04-18T02:01:17.337Z,46.23
2023-04-18T02:03:43.940Z,46.14
2023-04-18T02:06:10.456Z,45.90
2023-04-18T02:08:37.116Z,46.03
2023-04-18T02:11:03.768Z,46.24
2023-04-18T02:13:30.364Z,46.18
2023-04-18T02:15:58.192Z,46.15
2023-04-18T02:18:25.066Z,46.03
2023-04-18T02:20:51.969Z,46.14
2023-04-18T02:23:19.018Z,46.39
2023-04-18T02:25:45.698Z,46.28
2023-04-18T02:28:12.141Z,46.12
2023-04-18T02:30:38.621Z,46.18
2023-04-18T02:33:06.429Z,46.16
2023-04-18T02:35:32.928Z,46.29
2023-04-18T02:37:59.411Z,46.08
2023-04-18T02:40:25.927Z,46.03
2023-04-18T02:42:52.381Z,46.10
2023-04-18T02:45:19.006Z,46.10
2023-04-18T02:47:54.765Z,46.10
2023-04-18T02:50:24.721Z,45.99
2023-04-18T02:52:51.453Z,46.25
2023-04-18T02:55:18.170Z,45.97
2023-04-18T02:57:44.724Z,46.14
2023-04-18T03:00:12.255Z,46.11
2023-04-18T03:02:38.860Z,46.18
2023-04-18T03:05:05.949Z,46.04
2023-04-18T03:07:33.872Z,46.15
2023-04-18T03:10:00.334Z,46.33
2023-04-18T03:12:26.833Z,46.34
2023-04-18T03:14:53.299Z,46.20
2023-04-18T03:17:19.772Z,46.34
2023-04-18T03:19:46.261Z,46.19
2023-04-18T03:22:13.237Z,46.08
2023-04-18T03:24:41.210Z,46.18
2023-04-18T03:27:07.739Z,46.24
2023-04-18T03:29:34.290Z,46.15
2023-04-18T03:32:00.827Z,46.42
2023-04-18T03:34:27.635Z,46.14
2023-04-18T03:36:54.161Z,46.40
2023-04-18T03:39:20.661Z,46.20
2023-04-18T03:41:48.434Z,46.06
2023-04-18T03:44:15.165Z,46.33
2023-04-18T03:46:42.092Z,46.26
2023-04-18T03:49:08.634Z,46.16
2023-04-18T03:51:44.237Z,46.19
2023-04-18T03:54:10.883Z,46.33
2023-04-18T03:56:37.491Z,46.12
2023-04-18T03:59:05.387Z,46.28
2023-04-18T04:01:32.071Z,46.30
2023-04-18T04:03:58.653Z,46.14
2023-04-18T04:06:25.707Z,46.54
2023-04-18T04:08:52.136Z,46.50
2023-04-18T04:11:18.670Z,46.25
2023-04-18T04:13:45.142Z,46.21
2023-04-18T04:16:13.228Z,46.20
2023-04-18T04:18:39.754Z,46.27
2023-04-18T04:21:06.408Z,46.29
2023-04-18T04:23:32.856Z,46.20
2023-04-18T04:25:59.685Z,46.14
2023-04-18T04:28:26.160Z,46.43
2023-04-18T04:30:53.103Z,46.16
2023-04-18T04:33:22.409Z,46.23
2023-04-18T04:35:49.307Z,46.21
2023-04-18T04:38:15.837Z,46.15
2023-04-18T04:40:42.840Z,46.09
2023-04-18T04:43:09.308Z,46.45
2023-04-18T04:45:35.852Z,46.74
2023-04-18T04:48:02.471Z,46.77
2023-04-18T04:50:30.291Z,46.67
2023-04-18T04:52:56.711Z,47.02
2023-04-18T04:55:23.238Z,46.91
2023-04-18T04:57:49.757Z,47.09
2023-04-18T05:00:16.983Z,47.61
2023-04-18T05:02:43.523Z,47.33
2023-04-18T05:05:10.162Z,46.96
2023-04-18T05:07:37.978Z,47.13
2023-04-18T05:10:04.963Z,47.44
2023-04-18T05:12:31.549Z,47.73
2023-04-18T05:14:58.040Z,48.13
2023-04-18T05:17:24.660Z,48.65
2023-04-18T05:19:51.110Z,48.59
2023-04-18T05:22:17.571Z,48.65
2023-04-18T05:24:45.446Z,48.29
2023-04-18T05:27:11.930Z,47.97
2023-04-18T05:29:38.520Z,50.08
2023-04-18T05:32:05.402Z,55.94
2023-04-18T05:34:31.926Z,56.80
2023-04-18T05:36:58.612Z,55.98
2023-04-18T05:39:25.025Z,54.87
2023-04-18T05:41:52.833Z,55.42
2023-04-18T05:44:19.817Z,55.29
2023-04-18T05:46:46.728Z,54.62
2023-04-18T05:49:13.223Z,53.20
2023-04-18T05:51:39.831Z,52.26
2023-04-18T05:54:06.359Z,52.88
2023-04-18T05:56:32.850Z,52.35
2023-04-18T05:59:00.651Z,52.14
2023-04-18T06:01:27.214Z,51.80
2023-04-18T06:03:54.425Z,51.35
2023-04-18T06:06:21.165Z,51.39
2023-04-18T06:08:47.752Z,50.83
2023-04-18T06:11:14.201Z,50.77
2023-04-18T06:13:41.201Z,50.80
2023-04-18T06:16:09.047Z,50.45
2023-04-18T06:18:35.598Z,50.59
2023-04-18T06:21:02.142Z,50.19
2023-04-18T06:23:28.661Z,50.23
2023-04-18T06:25:57.048Z,50.31
2023-04-18T06:28:23.710Z,51.34
2023-04-18T06:30:50.203Z,52.17
2023-04-18T06:33:18.130Z,51.17
2023-04-18T06:35:44.732Z,51.01
2023-04-18T06:38:11.699Z,50.73
2023-04-18T06:40:38.330Z,50.43
2023-04-18T06:43:04.807Z,50.68
2023-04-18T06:45:31.446Z,50.58
2023-04-18T06:47:58.466Z,50.36
2023-04-18T06:50:27.076Z,50.66
2023-04-18T06:52:53.534Z,50.43
2023-04-18T06:55:20.060Z,50.47
2023-04-18T06:57:46.567Z,50.10
2023-04-18T07:00:13.942Z,49.95
2023-04-18T07:02:40.741Z,49.89
2023-04-18T07:05:08.726Z,49.96
2023-04-18T07:07:36.496Z,50.06
2023-04-18T07:10:03.162Z,49.60
2023-04-18T07:12:29.720Z,49.73
2023-04-18T07:14:56.257Z,49.53
2023-04-18T07:17:22.802Z,49.38
2023-04-18T07:19:49.428Z,49.37
2023-04-18T07:22:15.908Z,49.22
2023-04-18T07:24:43.673Z,48.95
2023-04-18T07:27:10.111Z,48.90
2023-04-18T07:29:36.556Z,49.35
2023-04-18T07:32:03.048Z,49.05
2023-04-18T07:34:29.867Z,48.96
2023-04-18T07:36:56.899Z,48.82
2023-04-18T07:39:23.337Z,48.88
2023-04-18T07:41:51.145Z,48.88
2023-04-18T07:44:17.766Z,48.72
2023-04-18T07:46:44.324Z,48.37
2023-04-18T07:49:10.933Z,48.66
2023-04-18T07:51:37.591Z,48.32
2023-04-18T07:54:04.287Z,48.36
2023-04-18T07:56:30.740Z,48.13
2023-04-18T07:58:58.517Z,47.94
2023-04-18T08:01:25.005Z,47.87
2023-04-18T08:03:51.716Z,48.05
2023-04-18T08:06:18.313Z,48.10
2023-04-18T08:08:44.920Z,48.14
2023-04-18T08:11:11.402Z,47.64
2023-04-18T08:13:38.127Z,47.61
2023-04-18T08:16:06.445Z,47.67
2023-04-18T08:18:32.964Z,47.84
2023-04-18T08:20:59.483Z,47.88
2023-04-18T08:23:25.968Z,47.62
2023-04-18T08:25:52.476Z,47.61
2023-04-18T08:28:18.970Z,47.68
2023-04-18T08:30:45.502Z,47.52
2023-04-18T08:33:13.286Z,47.55
2023-04-18T08:35:39.775Z,47.42
2023-04-18T08:38:06.262Z,47.47
2023-04-18T08:40:32.787Z,47.36
2023-04-18T08:43:01.901Z,47.31
2023-04-18T08:45:28.579Z,47.42
2023-04-18T08:47:55.408Z,47.43
2023-04-18T08:50:23.244Z,47.57
2023-04-18T08:52:51.216Z,47.68
2023-04-18T08:55:17.733Z,47.15
2023-04-18T08:57:44.660Z,47.35
2023-04-18T09:00:12.073Z,47.25
2023-04-18T09:02:40.397Z,47.42
2023-04-18T09:05:11.625Z,46.96
2023-04-18T09:07:39.473Z,46.83
2023-04-18T09:10:06.636Z,46.65
2023-04-18T09:12:40.245Z,46.55
2023-04-18T09:15:11.314Z,46.40
2023-04-18T09:17:39.630Z,46.59
2023-04-18T09:20:07.550Z,46.88
2023-04-18T09:22:47.744Z,46.34
2023-04-18T09:25:24.895Z,46.45
2023-04-18T09:27:51.618Z,46.82
2023-04-18T09:30:30.069Z,46.33
2023-04-18T09:32:58.283Z,46.22
2023-04-18T09:35:25.972Z,46.25
2023-04-18T09:37:53.845Z,46.40
2023-04-18T09:40:21.272Z,46.23
2023-04-18T09:42:47.950Z,46.21
2023-04-18T09:45:14.435Z,46.21
2023-04-18T09:47:40.943Z,46.46
2023-04-18T09:50:09.623Z,46.40
2023-04-18T09:52:38.572Z,46.13
2023-04-18T09:55:09.183Z,46.28
2023-04-18T09:57:37.735Z,46.21
2023-04-18T10:00:08.136Z,46.19
2023-04-18T10:02:46.887Z,46.06
2023-04-18T10:05:14.424Z,45.79
2023-04-18T10:07:43.781Z,45.96
2023-04-18T10:10:11.657Z,45.70
2023-04-18T10:12:38.992Z,45.82
2023-04-18T10:15:07.152Z,45.71
2023-04-18T10:17:56.023Z,45.63
2023-04-18T10:20:28.585Z,45.76
2023-04-18T10:22:55.975Z,45.61
2023-04-18T10:25:42.320Z,45.67
2023-04-18T10:28:10.146Z,45.66
2023-04-18T10:30:56.399Z,45.63
2023-04-18T10:33:31.787Z,45.49
2023-04-18T10:36:01.091Z,45.83
2023-04-18T10:38:27.999Z,45.62
2023-04-18T10:41:13.726Z,45.83
2023-04-18T10:44:06.278Z,45.61
2023-04-18T10:46:34.356Z,45.88
2023-04-18T10:49:14.448Z,45.94
2023-04-18T10:51:41.567Z,45.66
2023-04-18T10:54:10.616Z,45.70
2023-04-18T10:56:37.369Z,45.46
2023-04-18T10:59:03.802Z,45.12
2023-04-18T11:01:32.753Z,45.41
2023-04-18T11:04:01.179Z,45.33
2023-04-18T11:06:28.335Z,45.46
2023-04-18T11:09:09.365Z,45.47
2023-04-18T11:11:35.802Z,45.42
2023-04-18T11:14:02.358Z,45.44
2023-04-18T11:16:30.518Z,45.40
2023-04-18T11:18:57.491Z,45.46
2023-04-18T11:21:29.141Z,45.48
2023-04-18T11:23:57.828Z,45.46
2023-04-18T11:26:24.862Z,45.22
2023-04-18T11:28:52.030Z,45.34
2023-04-18T11:31:18.548Z,45.46
2023-04-18T11:33:46.519Z,45.47
2023-04-18T11:36:13.302Z,45.41
2023-04-18T11:38:41.232Z,45.35
2023-04-18T11:41:12.291Z,45.37
2023-04-18T11:43:42.989Z,45.42
2023-04-18T11:46:09.539Z,45.19
2023-04-18T11:48:36.587Z,45.40
2023-04-18T11:51:03.338Z,44.83
2023-04-18T11:53:33.653Z,45.21
2023-04-18T11:56:02.042Z,45.20
2023-04-18T11:58:32.728Z,45.23
2023-04-18T12:00:59.482Z,45.03
2023-04-18T12:03:26.229Z,45.00
2023-04-18T12:05:59.088Z,45.15
2023-04-18T12:08:25.786Z,44.68
2023-04-18T12:10:54.557Z,44.54
2023-04-18T12:13:25.992Z,44.43
2023-04-18T12:15:53.356Z,44.33
2023-04-18T12:18:20.036Z,44.46
2023-04-18T12:20:47.948Z,44.52
2023-04-18T12:23:31.965Z,44.34
2023-04-18T12:25:59.213Z,44.24
2023-04-18T12:28:27.586Z,44.33
2023-04-18T12:30:54.029Z,44.27
2023-04-18T12:33:20.570Z,44.25
2023-04-18T12:35:49.391Z,44.07
2023-04-18T12:38:20.210Z,44.07
2023-04-18T12:40:46.683Z,43.96
2023-04-18T12:43:13.200Z,43.91
2023-04-18T12:45:41.111Z,44.02
2023-04-18T12:48:07.662Z,44.06
2023-04-18T12:50:34.506Z,44.12
2023-04-18T12:53:01.593Z,43.87
2023-04-18T12:55:29.122Z,43.82
2023-04-18T12:57:56.168Z,43.87
2023-04-18T13:00:24.044Z,43.76
2023-04-18T13:02:52.909Z,43.74
2023-04-18T13:05:22.281Z,43.89
2023-04-18T13:07:49.515Z,43.64
2023-04-18T13:10:18.086Z,43.78
2023-04-18T13:12:45.426Z,43.96
2023-04-18T13:15:12.667Z,43.69
2023-04-18T13:17:39.863Z,43.76
2023-04-18T13:20:09.910Z,43.83
2023-04-18T13:22:36.794Z,43.56
2023-04-18T13:25:03.354Z,43.88
2023-04-18T13:27:29.943Z,43.90
2023-04-18T13:29:56.486Z,43.86
2023-04-18T13:32:23.297Z,43.67
2023-04-18T13:34:49.816Z,43.72
2023-04-18T13:37:17.652Z,43.79
2023-04-18T13:39:44.407Z,43.67
2023-04-18T13:42:10.870Z,43.67
2023-04-18T13:44:38.260Z,43.43
2023-04-18T13:47:06.172Z,43.46
2023-04-18T13:49:33.473Z,43.44
2023-04-18T13:52:00.040Z,43.77
2023-04-18T13:54:29.044Z,43.82
2023-04-18T13:56:56.197Z,43.73
2023-04-18T13:59:22.948Z,44.05
2023-04-18T14:01:49.709Z,44.02
2023-04-18T14:04:16.777Z,44.11
2023-04-18T14:06:43.668Z,43.97
2023-04-18T14:09:10.128Z,44.01
2023-04-18T14:11:37.912Z,43.83
2023-04-18T14:14:04.379Z,44.25
2023-04-18T14:16:32.420Z,44.42
2023-04-18T14:19:00.769Z,44.18
2023-04-18T14:21:27.818Z,44.14
2023-04-18T14:23:54.692Z,43.89
2023-04-18T14:26:21.430Z,43.70
2023-04-18T14:28:49.341Z,43.65
2023-04-18T14:31:15.914Z,44.25
2023-04-18T14:33:42.773Z,43.91
2023-04-18T14:36:09.769Z,43.20
2023-04-18T14:38:36.572Z,42.89
2023-04-18T14:41:04.185Z,42.69
2023-04-18T14:43:30.916Z,42.61
2023-04-18T14:45:59.728Z,42.47
2023-04-18T14:48:26.443Z,42.37
2023-04-18T14:50:56.492Z,42.49
2023-04-18T14:53:23.130Z,42.23
2023-04-18T14:55:49.734Z,42.15
2023-04-18T14:58:16.238Z,42.59
2023-04-18T15:00:42.743Z,42.18
2023-04-18T15:03:11.379Z,42.37
2023-04-18T15:05:38.126Z,42.39
2023-04-18T15:08:04.796Z,42.14
2023-04-18T15:10:31.225Z,42.09
2023-04-18T15:12:57.702Z,42.20
2023-04-18T15:15:24.230Z,42.20
2023-04-18T15:17:50.698Z,42.18
2023-04-18T15:20:18.690Z,42.08
2023-04-18T15:22:45.162Z,42.00
2023-04-18T15:25:11.649Z,41.92
2023-04-18T15:27:38.131Z,42.20
2023-04-18T15:30:05.527Z,42.17
2023-04-18T15:32:32.033Z,41.91
2023-04-18T15:34:58.626Z,41.66
2023-04-18T15:37:26.456Z,41.66
2023-04-18T15:39:53.027Z,41.78
2023-04-18T15:42:19.506Z,42.13
2023-04-18T15:44:45.944Z,42.33
2023-04-18T15:47:12.401Z,42.30
2023-04-18T15:49:38.836Z,42.12
2023-04-18T15:52:05.290Z,42.09
2023-04-18T15:54:33.083Z,42.19
2023-04-18T15:56:59.562Z,42.49
2023-04-18T15:59:26.044Z,42.66
2023-04-18T16:01:52.687Z,42.32
2023-04-18T16:04:19.299Z,42.51
2023-04-18T16:06:45.889Z,42.39
2023-04-18T16:09:12.391Z,42.49
2023-04-18T16:11:40.262Z,42.51
2023-04-18T16:14:06.797Z,42.46
2023-04-18T16:16:33.282Z,42.48
2023-04-18T16:18:59.884Z,42.83
2023-04-18T16:21:27.506Z,42.76
2023-04-18T16:23:54.006Z,42.81
2023-04-18T16:26:20.436Z,42.59
2023-04-18T16:28:48.276Z,42.59
2023-04-18T16:31:14.946Z,42.63
2023-04-18T16:33:41.518Z,42.44
2023-04-18T16:36:09.090Z,42.13
2023-04-18T16:38:35.703Z,41.66
2023-04-18T16:41:02.227Z,40.91
2023-04-18T16:43:28.810Z,40.52
2023-04-18T16:45:57.376Z,40.45
2023-04-18T16:48:24.166Z,41.06
2023-04-18T16:50:50.640Z,41.21
2023-04-18T16:53:17.216Z,41.67
2023-04-18T16:55:43.731Z,40.79
2023-04-18T16:58:10.237Z,40.59
2023-04-18T17:00:38.373Z,41.25
2023-04-18T17:03:06.689Z,41.83
2023-04-18T17:05:33.332Z,42.01
2023-04-18T17:08:00.100Z,41.89
2023-04-18T17:10:28.747Z,42.12
2023-04-18T17:12:55.241Z,42.26
2023-04-18T17:15:21.935Z,42.13
2023-04-18T17:17:48.478Z,42.10
2023-04-18T17:20:16.740Z,42.23
2023-04-18T17:22:43.294Z,42.34
2023-04-18T17:25:10.155Z,42.68
2023-04-18T17:27:36.617Z,42.54
2023-04-18T17:30:03.296Z,42.60
2023-04-18T17:32:29.792Z,42.52
2023-04-18T17:34:56.261Z,42.41
2023-04-18T17:37:24.038Z,42.46
2023-04-18T17:39:50.511Z,42.51
2023-04-18T17:42:18.949Z,42.54
2023-04-18T17:44:45.427Z,42.52
2023-04-18T17:47:11.977Z,42.53
2023-04-18T17:49:38.459Z,42.60
2023-04-18T17:52:05.201Z,42.51
2023-04-18T17:54:32.938Z,42.66
2023-04-18T17:56:59.403Z,42.76
2023-04-18T17:59:25.827Z,42.74
2023-04-18T18:01:52.444Z,42.57
2023-04-18T18:04:19.269Z,42.53
2023-04-18T18:06:54.210Z,42.44
2023-04-18T18:09:20.697Z,42.30
2023-04-18T18:11:48.510Z,42.36
2023-04-18T18:14:15.369Z,42.42
2023-04-18T18:16:41.926Z,42.32
2023-04-18T18:19:08.518Z,42.37
2023-04-18T18:21:35.134Z,42.55
2023-04-18T18:24:01.747Z,42.37
2023-04-18T18:26:28.370Z,42.60
2023-04-18T18:28:56.193Z,42.63
2023-04-18T18:31:22.704Z,42.72
2023-04-18T18:33:49.213Z,42.87
2023-04-18T18:36:15.696Z,42.67
2023-04-18T18:38:42.190Z,42.58
2023-04-18T18:41:08.985Z,42.98
2023-04-18T18:43:35.427Z,42.78
2023-04-18T18:46:03.235Z,42.91
2023-04-18T18:48:29.784Z,42.75
2023-04-18T18:50:56.332Z,42.87
2023-04-18T18:53:22.801Z,42.92
2023-04-18T18:55:49.339Z,42.85
2023-04-18T18:58:15.848Z,43.27
2023-04-18T19:00:42.268Z,43.24
2023-04-18T19:03:10.195Z,42.95
2023-04-18T19:05:36.695Z,42.96
2023-04-18T19:08:03.395Z,43.14
2023-04-18T19:10:29.976Z,43.07
2023-04-18T19:12:56.493Z,43.14
2023-04-18T19:15:23.404Z,43.14
2023-04-18T19:17:50.088Z,43.08
2023-04-18T19:20:17.937Z,43.07
2023-04-18T19:22:44.525Z,43.21
2023-04-18T19:25:11.066Z,43.18
2023-04-18T19:27:37.558Z,43.14
2023-04-18T19:30:04.505Z,43.39
2023-04-18T19:32:31.103Z,43.41
2023-04-18T19:34:57.627Z,43.31
2023-04-18T19:37:25.411Z,43.36
2023-04-18T19:39:51.868Z,43.20
2023-04-18T19:42:18.455Z,43.20
2023-04-18T19:44:44.901Z,43.29
2023-04-18T19:47:11.376Z,43.35
2023-04-18T19:49:37.933Z,43.08
2023-04-18T19:52:04.682Z,43.32
2023-04-18T19:54:32.566Z,43.21
2023-04-18T19:56:59.054Z,43.17
2023-04-18T19:59:25.611Z,43.45
2023-04-18T20:01:52.083Z,43.48
2023-04-18T20:04:18.617Z,43.42
2023-04-18T20:06:45.200Z,43.39
2023-04-18T20:09:11.667Z,43.58
2023-04-18T20:11:39.368Z,43.41
2023-04-18T20:14:05.839Z,43.52
2023-04-18T20:16:32.411Z,43.37
2023-04-18T20:18:58.869Z,43.38
2023-04-18T20:21:25.449Z,43.40
2023-04-18T20:23:51.982Z,43.51
2023-04-18T20:26:18.531Z,43.48
2023-04-18T20:28:46.381Z,43.66
2023-04-18T20:31:12.942Z,43.62
2023-04-18T20:33:39.422Z,43.56
2023-04-18T20:36:06.018Z,43.54
2023-04-18T20:38:32.725Z,43.47
2023-04-18T20:40:59.190Z,43.43
2023-04-18T20:43:25.683Z,43.41
2023-04-18T20:45:53.443Z,43.33
2023-04-18T20:48:20.139Z,43.45
2023-04-18T20:50:46.761Z,43.39
2023-04-18T20:53:13.305Z,43.38
2023-04-18T20:55:39.793Z,43.40
2023-04-18T20:58:06.378Z,43.23
2023-04-18T21:00:32.853Z,43.39
2023-04-18T21:03:00.847Z,43.72
2023-04-18T21:05:27.566Z,43.67
2023-04-18T21:07:54.014Z,43.60
2023-04-18T21:10:20.541Z,43.41
2023-04-18T21:12:47.023Z,43.39
2023-04-18T21:15:13.515Z,43.36
2023-04-18T21:17:40.026Z,43.60
2023-04-18T21:20:08.846Z,43.47
2023-04-18T21:22:35.370Z,43.47
2023-04-18T21:25:02.723Z,43.40
2023-04-18T21:27:29.677Z,43.48
2023-04-18T21:29:56.288Z,43.39
2023-04-18T21:32:22.882Z,43.39
2023-04-18T21:34:49.402Z,43.57
2023-04-18T21:37:17.265Z,43.55
2023-04-18T21:39:43.898Z,43.72
2023-04-18T21:42:10.499Z,43.53
2023-04-18T21:44:36.971Z,43.44
2023-04-18T21:47:03.460Z,43.60
2023-04-18T21:49:29.952Z,43.57
2023-04-18T21:51:56.436Z,43.43
2023-04-18T21:54:24.200Z,43.57
2023-04-18T21:56:50.738Z,43.36
2023-04-18T21:59:17.227Z,43.63
2023-04-18T22:01:43.804Z,43.47
2023-04-18T22:04:10.390Z,43.48
2023-04-18T22:06:37.043Z,43.76
2023-04-18T22:09:03.600Z,43.66
2023-04-18T22:11:31.417Z,43.71
2023-04-18T22:13:57.866Z,43.69
2023-04-18T22:16:24.441Z,43.47
2023-04-18T22:18:51.092Z,43.62
2023-04-18T22:21:17.618Z,43.54
2023-04-18T22:23:44.065Z,43.46
2023-04-18T22:26:10.571Z,43.56
2023-04-18T22:28:38.502Z,43.71
2023-04-18T22:31:05.230Z,43.55
2023-04-18T22:33:31.888Z,43.53
2023-04-18T22:35:58.306Z,43.57
2023-04-18T22:38:25.025Z,43.84
2023-04-18T22:40:51.550Z,43.69
2023-04-18T22:43:18.012Z,43.60
2023-04-18T22:45:46.533Z,43.71
2023-04-18T22:48:13.091Z,43.71
2023-04-18T22:50:39.578Z,43.63
2023-04-18T22:53:06.049Z,43.62
2023-04-18T22:55:32.623Z,43.55
2023-04-18T22:57:59.107Z,43.68
2023-04-18T23:00:25.667Z,43.76
2023-04-18T23:02:53.598Z,43.62
2023-04-18T23:05:20.349Z,43.49
2023-04-18T23:07:46.874Z,43.67
2023-04-18T23:10:13.525Z,43.58
2023-04-18T23:12:40.034Z,43.86
2023-04-18T23:15:07.348Z,43.77
2023-04-18T23:17:34.023Z,43.77
2023-04-18T23:20:01.864Z,43.62
2023-04-18T23:22:28.890Z,43.57
2023-04-18T23:24:55.377Z,43.69
2023-04-18T23:27:21.840Z,43.69
2023-04-18T23:29:48.300Z,43.67
2023-04-18T23:32:14.890Z,43.50
2023-04-18T23:34:41.370Z,43.59
2023-04-18T23:37:09.295Z,43.71
2023-04-18T23:39:35.744Z,43.62
2023-04-18T23:42:02.388Z,43.60
2023-04-18T23:44:28.840Z,43.86
2023-04-18T23:46:55.369Z,43.97
2023-04-18T23:49:21.879Z,43.84
2023-04-18T23:51:48.388Z,43.84
2023-04-18T23:54:16.309Z,43.89
2023-04-18T23:56:42.857Z,43.84
2023-04-18T23:59:09.318Z,43.64
